createdAt,value
2022-08-19T00:00:56.043Z,11.23
2022-08-19T00:15:58.696Z,11.27
2022-08-19T00:31:00.986Z,12.17
2022-08-19T00:46:05.847Z,11.33
2022-08-19T01:01:09.078Z,12.35
2022-08-19T02:23:33.148Z,14.23
2022-08-19T02:38:36.299Z,15.43
2022-08-19T03:08:45.712Z,14.13
2022-08-19T03:23:48.203Z,14.70
2022-08-19T03:38:56.361Z,14.97
2022-08-19T03:54:04.360Z,17.25
2022-08-19T04:09:09.714Z,16.52
2022-08-19T04:24:12.989Z,19.23
2022-08-19T04:39:17.875Z,20.27
2022-08-19T04:54:37.778Z,26.35
2022-08-19T05:09:56.783Z,19.63
2022-08-19T05:25:12.786Z,18.42
2022-08-19T05:40:15.459Z,18.60
2022-08-19T05:55:17.443Z,20.20
2022-08-19T06:10:19.403Z,17.55
2022-08-19T06:25:21.500Z,16.25
2022-08-19T06:40:23.573Z,14.32
2022-08-19T06:55:25.456Z,12.73
2022-08-19T07:10:27.878Z,15.05
2022-08-19T07:25:32.098Z,8.32
2022-08-19T07:40:34.539Z,8.07
2022-08-19T07:55:41.106Z,7.90
2022-08-19T08:10:52.963Z,7.38
2022-08-19T08:25:59.158Z,8.18
2022-08-19T08:41:27.192Z,8.07
2022-08-19T09:11:57.732Z,9.32
2022-08-19T09:26:59.778Z,9.35
2022-08-19T09:42:04.758Z,8.13
2022-08-19T09:57:07.824Z,5.78
2022-08-19T10:12:11.145Z,5.60
2022-08-19T10:27:14.947Z,3.90
2022-08-19T10:42:19.740Z,4.63
2022-08-19T10:57:30.313Z,5.00
2022-08-19T11:27:45.783Z,5.95
2022-08-19T11:42:57.296Z,5.43
2022-08-19T11:57:59.224Z,7.05
2022-08-19T12:13:01.231Z,7.18
2022-08-19T12:28:04.742Z,6.90
2022-08-19T12:43:08.509Z,5.97
2022-08-19T12:58:13.640Z,6.07
2022-08-19T13:13:15.534Z,5.65
2022-08-19T13:28:17.538Z,6.32
2022-08-19T13:43:24.671Z,6.43
2022-08-19T13:58:26.546Z,6.97
2022-08-19T14:13:28.672Z,6.93
2022-08-19T14:28:31.498Z,7.40
2022-08-19T14:43:33.385Z,8.27
2022-08-19T14:58:38.893Z,5.97
2022-08-19T15:13:41.159Z,4.82
2022-08-19T15:28:43.597Z,4.88
2022-08-19T15:43:45.644Z,3.22
2022-08-19T15:59:07.022Z,3.67
2022-08-19T16:14:09.730Z,4.93
2022-08-19T16:29:13.506Z,4.63
2022-08-19T16:44:17.913Z,5.40
2022-08-19T16:59:19.844Z,6.05
2022-08-19T17:14:22.188Z,6.57
2022-08-19T17:29:24.317Z,7.87
2022-08-19T17:44:26.200Z,9.57
2022-08-19T17:59:30.150Z,15.43
2022-08-19T18:14:34.929Z,13.43
2022-08-19T18:29:38.760Z,33.25
2022-08-19T18:45:00.136Z,15.55
2022-08-19T19:00:04.549Z,12.02
2022-08-19T19:15:07.383Z,9.70
2022-08-19T19:30:09.955Z,8.80
2022-08-19T19:45:11.847Z,9.90
2022-08-19T20:00:16.731Z,10.20
2022-08-19T20:15:19.197Z,10.23
2022-08-19T20:30:23.215Z,12.20
2022-08-19T20:45:32.475Z,24.38
2022-08-19T21:00:35.708Z,9.18
2022-08-19T21:15:40.773Z,10.10
2022-08-19T21:30:43.470Z,10.52
2022-08-19T21:45:47.619Z,10.05
2022-08-19T22:00:49.821Z,8.23
2022-08-19T22:30:54.208Z,8.55
2022-08-19T22:45:57.131Z,10.60
2022-08-19T23:00:59.243Z,12.10
2022-08-19T23:16:01.128Z,13.03
2022-08-19T23:31:04.280Z,13.98
